createdAt,value
2023-01-22T00:00:41.391Z,15.65
2023-01-22T00:01:44.615Z,19.02
2023-01-22T00:02:49.190Z,18.65
2023-01-22T00:03:53.906Z,14.32
2023-01-22T00:04:57.108Z,19.75
2023-01-22T00:06:00.401Z,14.15
2023-01-22T00:07:04.196Z,23.92
2023-01-22T00:08:07.402Z,17.75
2023-01-22T00:09:10.627Z,17.30
2023-01-22T00:10:14.121Z,19.42
2023-01-22T00:11:19.544Z,14.63
2023-01-22T00:12:22.649Z,14.95
2023-01-22T00:13:27.810Z,17.85
2023-01-22T00:14:30.985Z,16.23
2023-01-22T00:15:34.303Z,14.20
2023-01-22T00:16:37.700Z,18.23
2023-01-22T00:17:40.804Z,17.65
2023-01-22T00:18:44.317Z,18.05
2023-01-22T00:19:47.730Z,14.65
2023-01-22T00:20:53.387Z,20.35
2023-01-22T00:21:56.645Z,21.70
2023-01-22T00:22:59.771Z,21.63
2023-01-22T00:24:03.254Z,21.88
2023-01-22T00:25:07.611Z,20.73
2023-01-22T00:26:17.013Z,15.73
2023-01-22T00:27:21.296Z,19.60
2023-01-22T00:28:24.488Z,24.02
2023-01-22T00:29:27.744Z,19.98
2023-01-22T00:30:30.978Z,18.48
2023-01-22T00:31:35.374Z,20.17
2023-01-22T00:32:38.518Z,19.38
2023-01-22T00:33:43.107Z,13.23
2023-01-22T00:34:52.319Z,15.18
2023-01-22T00:35:56.016Z,16.48
2023-01-22T00:36:59.320Z,15.70
2023-01-22T00:38:03.867Z,22.40
2023-01-22T00:39:07.261Z,15.82
2023-01-22T00:40:13.211Z,12.68
2023-01-22T00:41:18.149Z,17.67
2023-01-22T00:42:22.226Z,15.70
2023-01-22T00:43:25.488Z,12.70
2023-01-22T00:44:28.658Z,14.25
2023-01-22T00:45:32.320Z,15.80
2023-01-22T00:46:36.873Z,16.10
2023-01-22T00:47:40.784Z,18.63
2023-01-22T00:48:49.633Z,20.23
2023-01-22T00:49:53.012Z,13.90
2023-01-22T00:50:56.672Z,14.60
2023-01-22T00:51:59.998Z,15.25
2023-01-22T00:53:04.137Z,14.05
2023-01-22T00:54:09.027Z,14.82
2023-01-22T00:55:12.417Z,16.88
2023-01-22T00:56:15.893Z,13.27
2023-01-22T00:57:22.002Z,13.63
2023-01-22T00:58:26.527Z,16.60
2023-01-22T00:59:29.748Z,14.88
2023-01-22T01:00:33.093Z,13.95
2023-01-22T01:01:38.622Z,16.48
2023-01-22T01:03:00.736Z,15.52
2023-01-22T01:04:04.637Z,15.35
2023-01-22T01:05:09.289Z,15.65
2023-01-22T01:06:20.233Z,15.27
2023-01-22T01:08:30.284Z,16.27
2023-01-22T01:09:33.598Z,15.63
2023-01-22T01:10:36.838Z,13.77
2023-01-22T01:11:40.252Z,16.17
2023-01-22T01:12:43.640Z,12.85
2023-01-22T01:13:48.190Z,13.38
2023-01-22T01:14:51.754Z,14.63
2023-01-22T01:16:08.093Z,18.02
2023-01-22T01:17:11.402Z,17.40
2023-01-22T01:18:14.703Z,17.33
2023-01-22T01:19:20.542Z,18.23
2023-01-22T01:20:27.096Z,17.95
2023-01-22T01:21:31.351Z,18.80
2023-01-22T01:22:35.375Z,17.30
2023-01-22T01:23:39.358Z,17.13
2023-01-22T01:24:42.559Z,16.20
2023-01-22T01:25:45.816Z,17.25
2023-01-22T01:26:49.194Z,12.93
2023-01-22T01:27:52.481Z,18.13
2023-01-22T01:28:55.816Z,20.48
2023-01-22T01:29:59.410Z,16.77
2023-01-22T01:31:05.398Z,16.13
2023-01-22T01:32:08.940Z,15.95
2023-01-22T01:33:12.766Z,19.38
2023-01-22T01:34:15.966Z,19.05
2023-01-22T01:35:19.690Z,14.35
2023-01-22T01:36:46.440Z,16.02
2023-01-22T01:37:48.508Z,15.80
2023-01-22T01:38:52.449Z,17.48
2023-01-22T01:39:55.651Z,12.77
2023-01-22T01:41:00.156Z,12.63
2023-01-22T01:42:03.689Z,14.82
2023-01-22T01:43:17.170Z,17.83
2023-01-22T01:44:23.987Z,14.90
2023-01-22T01:45:34.510Z,15.52
2023-01-22T01:47:05.986Z,14.98
2023-01-22T01:48:41.050Z,16.25
2023-01-22T01:49:51.105Z,16.45
2023-01-22T01:51:16.176Z,12.23
2023-01-22T01:52:21.428Z,15.40
2023-01-22T01:53:25.692Z,11.93
2023-01-22T01:54:30.787Z,17.30
2023-01-22T01:55:39.348Z,14.82
2023-01-22T01:56:51.032Z,15.18
2023-01-22T01:57:58.755Z,13.65
2023-01-22T01:59:09.108Z,15.45
2023-01-22T02:00:16.414Z,15.27
2023-01-22T02:01:21.352Z,16.10
2023-01-22T02:02:25.027Z,15.40
2023-01-22T02:03:30.953Z,15.75
2023-01-22T02:04:34.215Z,13.30
2023-01-22T02:05:39.115Z,15.98
2023-01-22T02:06:43.056Z,17.05
2023-01-22T02:07:47.027Z,15.55
2023-01-22T02:08:51.934Z,14.40
2023-01-22T02:09:55.295Z,15.68
2023-01-22T02:10:59.032Z,15.95
2023-01-22T02:12:03.571Z,15.15
2023-01-22T02:13:12.336Z,14.23
2023-01-22T02:14:22.349Z,17.58
2023-01-22T02:15:25.852Z,16.98
2023-01-22T02:16:29.215Z,14.05
2023-01-22T02:17:32.455Z,15.65
2023-01-22T02:18:36.546Z,14.18
2023-01-22T02:19:44.158Z,15.50
2023-01-22T02:21:01.687Z,14.85
2023-01-22T02:22:19.210Z,14.55
2023-01-22T02:23:23.759Z,15.68
2023-01-22T02:24:31.289Z,14.18
2023-01-22T02:25:34.771Z,13.75
2023-01-22T02:26:39.224Z,15.63
2023-01-22T02:27:42.536Z,11.27
2023-01-22T02:28:45.713Z,14.55
2023-01-22T02:29:52.135Z,14.93
2023-01-22T02:30:55.425Z,14.13
2023-01-22T02:31:58.822Z,17.23
2023-01-22T02:33:02.337Z,17.10
2023-01-22T02:34:07.668Z,14.52
2023-01-22T02:35:11.719Z,14.80
2023-01-22T02:36:16.241Z,12.98
2023-01-22T02:37:19.440Z,13.18
2023-01-22T02:38:24.314Z,14.38
2023-01-22T02:39:27.541Z,15.50
2023-01-22T02:40:31.018Z,14.07
2023-01-22T02:41:35.019Z,16.70
2023-01-22T02:42:38.724Z,14.52
2023-01-22T02:43:41.783Z,12.13
2023-01-22T02:44:44.985Z,17.85
2023-01-22T02:45:49.000Z,13.88
2023-01-22T02:46:52.448Z,13.63
2023-01-22T02:47:55.621Z,13.73
2023-01-22T02:48:59.006Z,13.18
2023-01-22T02:50:02.869Z,11.50
2023-01-22T02:51:07.182Z,11.80
2023-01-22T02:52:11.674Z,13.80
2023-01-22T02:53:15.144Z,13.00
2023-01-22T02:54:18.942Z,14.07
2023-01-22T02:55:22.227Z,15.30
2023-01-22T02:56:26.367Z,13.95
2023-01-22T02:57:32.631Z,11.60
2023-01-22T02:58:37.265Z,13.02
2023-01-22T02:59:40.831Z,12.48
2023-01-22T03:00:47.188Z,11.73
2023-01-22T03:01:51.902Z,13.85
2023-01-22T03:02:55.222Z,15.43
2023-01-22T03:04:10.775Z,16.33
2023-01-22T03:05:14.235Z,15.88
2023-01-22T03:06:21.857Z,11.93
2023-01-22T03:07:25.180Z,13.00
2023-01-22T03:08:28.723Z,11.75
2023-01-22T03:09:32.890Z,12.40
2023-01-22T03:10:36.088Z,12.52
2023-01-22T03:11:42.452Z,10.93
2023-01-22T03:13:19.575Z,11.35
2023-01-22T03:14:41.272Z,11.85
2023-01-22T03:16:03.283Z,13.07
2023-01-22T03:17:27.448Z,12.52
2023-01-22T03:18:50.867Z,14.68
2023-01-22T03:20:13.937Z,13.80
2023-01-22T03:21:18.715Z,10.38
2023-01-22T03:22:22.132Z,14.77
2023-01-22T03:23:28.093Z,14.65
2023-01-22T03:24:31.438Z,12.30
2023-01-22T03:25:36.558Z,11.25
2023-01-22T03:26:39.843Z,9.90
2023-01-22T03:28:03.960Z,10.95
2023-01-22T03:29:09.552Z,13.88
2023-01-22T03:30:16.521Z,10.25
2023-01-22T03:31:20.251Z,12.95
2023-01-22T03:32:24.221Z,15.55
2023-01-22T03:33:27.488Z,11.32
2023-01-22T03:34:30.731Z,11.68
2023-01-22T03:35:34.581Z,12.82
2023-01-22T03:36:49.984Z,12.45
2023-01-22T03:37:53.095Z,15.25
2023-01-22T03:38:56.737Z,13.60
2023-01-22T03:40:01.220Z,12.02
2023-01-22T03:42:19.689Z,10.75
2023-01-22T03:43:23.267Z,14.85
2023-01-22T03:44:26.782Z,10.60
2023-01-22T03:45:34.125Z,12.88
2023-01-22T03:46:39.993Z,11.93
2023-01-22T03:47:43.994Z,10.00
2023-01-22T03:49:02.425Z,12.80
2023-01-22T03:50:07.228Z,11.40
2023-01-22T03:51:14.470Z,11.63
2023-01-22T03:52:17.649Z,14.55
2023-01-22T03:53:21.724Z,14.02
2023-01-22T03:54:25.194Z,12.50
2023-01-22T03:55:30.219Z,10.98
2023-01-22T03:56:34.056Z,10.73
2023-01-22T03:57:43.313Z,11.70
2023-01-22T03:58:47.379Z,10.70
2023-01-22T03:59:50.677Z,11.30
2023-01-22T04:00:57.649Z,12.52
2023-01-22T04:02:01.013Z,11.18
2023-01-22T04:03:05.717Z,13.18
2023-01-22T04:04:14.749Z,11.25
2023-01-22T04:05:19.601Z,14.65
2023-01-22T04:06:23.955Z,12.68
2023-01-22T04:07:27.409Z,11.10
2023-01-22T04:08:33.253Z,12.38
2023-01-22T04:09:36.667Z,11.65
2023-01-22T04:10:39.826Z,13.05
2023-01-22T04:11:43.056Z,12.75
2023-01-22T04:12:46.206Z,13.63
2023-01-22T04:13:51.425Z,12.13
2023-01-22T04:14:58.224Z,10.48
2023-01-22T04:16:01.661Z,12.93
2023-01-22T04:17:25.679Z,10.20
2023-01-22T04:18:50.232Z,13.30
2023-01-22T04:20:17.343Z,9.98
2023-01-22T04:21:31.157Z,11.18
2023-01-22T04:22:37.128Z,12.23
2023-01-22T04:23:41.345Z,10.23
2023-01-22T04:24:44.599Z,12.85
2023-01-22T04:25:48.338Z,11.25
2023-01-22T04:26:52.863Z,11.48
2023-01-22T04:27:56.890Z,11.70
2023-01-22T04:29:00.397Z,11.05
2023-01-22T04:30:06.514Z,12.95
2023-01-22T04:31:10.950Z,9.88
2023-01-22T04:32:20.197Z,12.98
2023-01-22T04:33:39.559Z,9.48
2023-01-22T04:34:47.544Z,9.40
2023-01-22T04:36:00.133Z,17.05
2023-01-22T04:37:03.451Z,10.05
2023-01-22T04:38:13.853Z,12.00
2023-01-22T04:39:18.576Z,13.65
2023-01-22T04:40:22.035Z,11.60
2023-01-22T04:41:28.468Z,12.48
2023-01-22T04:42:33.565Z,9.27
2023-01-22T04:43:37.088Z,11.50
2023-01-22T04:44:40.427Z,10.75
2023-01-22T04:45:44.556Z,12.43
2023-01-22T04:46:47.844Z,11.63
2023-01-22T04:47:51.182Z,9.95
2023-01-22T04:48:57.941Z,12.93
2023-01-22T04:50:01.524Z,9.93
2023-01-22T04:51:07.415Z,10.07
2023-01-22T04:52:10.867Z,11.90
2023-01-22T04:53:14.178Z,10.38
2023-01-22T04:54:17.667Z,11.45
2023-01-22T04:55:22.387Z,10.60
2023-01-22T04:56:37.923Z,9.32
2023-01-22T04:57:41.152Z,13.35
2023-01-22T04:58:44.456Z,12.05
2023-01-22T04:59:47.727Z,9.70
2023-01-22T05:00:50.986Z,9.57
2023-01-22T05:01:54.368Z,11.32
2023-01-22T05:03:01.331Z,9.77
2023-01-22T05:04:05.776Z,8.02
2023-01-22T05:05:10.988Z,10.55
2023-01-22T05:06:14.696Z,11.27
2023-01-22T05:07:17.878Z,11.25
2023-01-22T05:08:21.225Z,9.65
2023-01-22T05:09:25.794Z,10.63
2023-01-22T05:10:31.524Z,8.90
2023-01-22T05:11:34.728Z,8.43
2023-01-22T05:12:39.235Z,9.65
2023-01-22T05:13:42.448Z,8.50
2023-01-22T05:14:46.561Z,11.90
2023-01-22T05:15:49.724Z,11.32
2023-01-22T05:16:53.706Z,11.68
2023-01-22T05:17:56.998Z,9.25
2023-01-22T05:19:00.335Z,11.20
2023-01-22T05:20:03.992Z,13.10
2023-01-22T05:21:07.301Z,14.05
2023-01-22T05:22:12.577Z,10.93
2023-01-22T05:23:18.024Z,8.68
2023-01-22T05:24:21.396Z,8.98
2023-01-22T05:25:24.713Z,10.07
2023-01-22T05:26:28.407Z,10.43
2023-01-22T05:27:38.352Z,7.88
2023-01-22T05:28:49.780Z,11.93
2023-01-22T05:30:06.045Z,10.75
2023-01-22T05:31:35.520Z,12.52
2023-01-22T05:32:41.411Z,10.65
2023-01-22T05:33:44.604Z,8.50
2023-01-22T05:34:49.287Z,11.68
2023-01-22T05:36:00.797Z,8.93
2023-01-22T05:37:04.367Z,10.27
2023-01-22T05:38:09.218Z,11.40
2023-01-22T05:39:15.625Z,14.05
2023-01-22T05:40:21.099Z,11.40
2023-01-22T05:41:24.396Z,10.93
2023-01-22T05:42:29.711Z,10.73
2023-01-22T05:43:33.032Z,13.02
2023-01-22T05:44:40.198Z,9.75
2023-01-22T05:45:43.422Z,10.95
2023-01-22T05:47:15.939Z,10.57
2023-01-22T05:48:34.324Z,10.70
2023-01-22T05:49:49.465Z,10.05
2023-01-22T05:50:53.341Z,10.85
2023-01-22T05:51:56.571Z,10.52
2023-01-22T05:52:59.865Z,11.23
2023-01-22T05:54:03.188Z,11.52
2023-01-22T05:55:09.605Z,10.13
2023-01-22T05:56:18.580Z,10.77
2023-01-22T05:57:21.791Z,11.25
2023-01-22T05:58:26.072Z,10.90
2023-01-22T05:59:29.819Z,11.93
2023-01-22T06:00:37.886Z,11.90
2023-01-22T06:01:44.560Z,10.13
2023-01-22T06:02:48.583Z,10.40
2023-01-22T06:03:53.161Z,10.27
2023-01-22T06:04:59.731Z,13.48
2023-01-22T06:06:11.049Z,11.93
2023-01-22T06:07:14.477Z,9.63
2023-01-22T06:08:17.772Z,10.93
2023-01-22T06:09:26.460Z,12.85
2023-01-22T06:10:30.042Z,11.77
2023-01-22T06:11:33.711Z,13.05
2023-01-22T06:12:37.075Z,14.30
2023-01-22T06:13:41.360Z,11.90
2023-01-22T06:14:54.224Z,10.35
2023-01-22T06:15:57.932Z,10.40
2023-01-22T06:17:21.934Z,10.50
2023-01-22T06:18:31.135Z,11.48
2023-01-22T06:19:34.515Z,10.82
2023-01-22T06:20:37.819Z,11.00
2023-01-22T06:21:44.231Z,10.52
2023-01-22T06:22:51.972Z,12.75
2023-01-22T06:23:55.342Z,11.80
2023-01-22T06:24:58.631Z,13.65
2023-01-22T06:26:09.763Z,11.85
2023-01-22T06:27:12.869Z,10.82
2023-01-22T06:28:26.354Z,10.90
2023-01-22T06:29:29.478Z,10.95
2023-01-22T06:30:32.876Z,12.85
2023-01-22T06:31:38.374Z,12.27
2023-01-22T06:32:44.216Z,15.32
2023-01-22T06:33:48.849Z,9.70
2023-01-22T06:34:52.580Z,13.50
2023-01-22T06:35:57.161Z,7.78
2023-01-22T06:37:00.839Z,12.02
2023-01-22T06:38:08.261Z,9.52
2023-01-22T06:39:11.515Z,11.80
2023-01-22T06:40:20.494Z,12.73
2023-01-22T06:41:25.404Z,13.18
2023-01-22T06:42:36.233Z,10.77
2023-01-22T06:43:40.087Z,11.43
2023-01-22T06:44:43.520Z,14.10
2023-01-22T06:45:46.772Z,10.55
2023-01-22T06:46:50.148Z,11.35
2023-01-22T06:47:57.685Z,10.02
2023-01-22T06:49:02.595Z,9.38
2023-01-22T06:50:06.281Z,10.07
2023-01-22T06:51:11.334Z,11.57
2023-01-22T06:52:14.653Z,12.25
2023-01-22T06:53:18.144Z,10.45
2023-01-22T06:54:21.375Z,11.63
2023-01-22T06:55:24.576Z,11.25
2023-01-22T06:56:28.570Z,11.63
2023-01-22T06:57:33.660Z,12.45
2023-01-22T06:58:37.322Z,10.35
2023-01-22T06:59:40.801Z,10.18
2023-01-22T07:00:43.944Z,9.60
2023-01-22T07:01:47.157Z,12.63
2023-01-22T07:02:50.669Z,9.95
2023-01-22T07:03:54.117Z,10.23
2023-01-22T07:04:58.363Z,11.70
2023-01-22T07:06:04.366Z,10.43
2023-01-22T07:07:07.547Z,13.13
2023-01-22T07:08:19.595Z,9.70
2023-01-22T07:09:22.894Z,11.65
2023-01-22T07:10:26.091Z,13.63
2023-01-22T07:11:29.379Z,15.10
2023-01-22T07:12:32.646Z,9.50
2023-01-22T07:13:35.792Z,11.20
2023-01-22T07:14:39.077Z,13.18
2023-01-22T07:15:42.937Z,12.73
2023-01-22T07:16:46.511Z,14.60
2023-01-22T07:17:54.293Z,13.18
2023-01-22T07:18:57.534Z,10.80
2023-01-22T07:20:00.792Z,10.60
2023-01-22T07:21:05.711Z,9.93
2023-01-22T07:22:08.854Z,12.60
2023-01-22T07:23:12.205Z,11.93
2023-01-22T07:24:16.381Z,13.13
2023-01-22T07:25:20.498Z,9.50
2023-01-22T07:26:23.681Z,12.77
2023-01-22T07:27:27.089Z,15.13
2023-01-22T07:28:30.551Z,10.98
2023-01-22T07:29:33.786Z,18.77
2023-01-22T07:30:37.548Z,10.77
2023-01-22T07:31:40.946Z,14.80
2023-01-22T07:32:44.891Z,11.45
2023-01-22T07:33:48.070Z,11.80
2023-01-22T07:34:51.347Z,10.38
2023-01-22T07:35:58.292Z,11.05
2023-01-22T07:37:03.974Z,15.07
2023-01-22T07:38:08.344Z,14.27
2023-01-22T07:39:11.494Z,9.48
2023-01-22T07:40:14.820Z,10.52
2023-01-22T07:41:25.754Z,15.00
2023-01-22T07:42:29.601Z,11.73
2023-01-22T07:43:33.400Z,12.70
2023-01-22T07:44:40.337Z,12.70
2023-01-22T07:45:43.673Z,12.93
2023-01-22T07:46:46.915Z,9.90
2023-01-22T07:47:59.338Z,12.15
2023-01-22T07:49:02.831Z,14.52
2023-01-22T07:50:06.868Z,11.70
2023-01-22T07:51:12.576Z,11.00
2023-01-22T07:52:15.947Z,16.45
2023-01-22T07:53:19.204Z,13.07
2023-01-22T07:54:22.526Z,12.32
2023-01-22T07:55:25.755Z,11.80
2023-01-22T07:56:29.072Z,12.63
2023-01-22T07:57:32.591Z,12.95
2023-01-22T07:58:36.197Z,14.73
2023-01-22T07:59:39.363Z,14.15
2023-01-22T08:00:42.600Z,11.32
2023-01-22T08:01:45.864Z,14.50
2023-01-22T08:02:50.290Z,18.10
2023-01-22T08:03:53.493Z,13.88
2023-01-22T08:04:56.751Z,13.90
2023-01-22T08:06:00.927Z,13.98
2023-01-22T08:07:04.175Z,13.73
2023-01-22T08:08:18.047Z,13.48
2023-01-22T08:09:25.726Z,14.35
2023-01-22T08:10:29.285Z,14.77
2023-01-22T08:11:32.700Z,15.43
2023-01-22T08:12:38.587Z,18.77
2023-01-22T08:13:42.060Z,12.55
2023-01-22T08:14:45.525Z,14.18
2023-01-22T08:15:48.756Z,13.65
2023-01-22T08:16:52.063Z,11.77
2023-01-22T08:17:55.283Z,12.00
2023-01-22T08:18:58.437Z,12.50
2023-01-22T08:20:05.043Z,14.00
2023-01-22T08:21:08.294Z,12.95
2023-01-22T08:22:11.641Z,13.57
2023-01-22T08:23:14.995Z,14.18
2023-01-22T08:24:18.320Z,11.25
2023-01-22T08:25:21.547Z,11.60
2023-01-22T08:26:24.781Z,12.43
2023-01-22T08:27:28.283Z,12.40
2023-01-22T08:28:31.980Z,14.95
2023-01-22T08:29:35.273Z,11.90
2023-01-22T08:30:46.143Z,15.55
2023-01-22T08:31:51.201Z,15.82
2023-01-22T08:32:55.277Z,13.98
2023-01-22T08:34:00.115Z,12.10
2023-01-22T08:35:03.364Z,13.50
2023-01-22T08:36:07.397Z,13.55
2023-01-22T08:37:10.853Z,13.95
2023-01-22T08:38:14.208Z,13.77
2023-01-22T08:39:17.381Z,13.25
2023-01-22T08:40:20.844Z,14.02
2023-01-22T08:41:25.102Z,14.20
2023-01-22T08:42:38.123Z,13.88
2023-01-22T08:43:44.400Z,14.98
2023-01-22T08:44:48.050Z,14.02
2023-01-22T08:45:51.627Z,15.80
2023-01-22T08:46:54.956Z,12.63
2023-01-22T08:47:59.897Z,10.20
2023-01-22T08:49:06.118Z,14.27
2023-01-22T08:50:10.243Z,16.75
2023-01-22T08:51:13.815Z,15.55
2023-01-22T08:52:17.578Z,14.68
2023-01-22T08:53:20.883Z,12.60
2023-01-22T08:54:26.360Z,16.88
2023-01-22T08:55:29.831Z,16.80
2023-01-22T08:56:34.825Z,14.95
2023-01-22T08:57:38.107Z,16.50
2023-01-22T08:58:41.372Z,25.08
2023-01-22T08:59:49.618Z,15.63
2023-01-22T09:01:03.565Z,14.85
2023-01-22T09:02:09.832Z,13.98
2023-01-22T09:03:15.423Z,13.35
2023-01-22T09:04:20.100Z,11.98
2023-01-22T09:05:23.933Z,15.90
2023-01-22T09:06:27.431Z,12.07
2023-01-22T09:07:30.614Z,16.30
2023-01-22T09:08:33.911Z,12.50
2023-01-22T09:09:37.545Z,14.65
2023-01-22T09:10:42.220Z,16.10
2023-01-22T09:11:46.884Z,14.95
2023-01-22T09:12:50.237Z,16.77
2023-01-22T09:13:56.366Z,14.27
2023-01-22T09:14:59.736Z,15.38
2023-01-22T09:16:03.160Z,19.45
2023-01-22T09:17:06.555Z,17.00
2023-01-22T09:18:09.865Z,14.20
2023-01-22T09:19:13.538Z,15.85
2023-01-22T09:20:17.369Z,15.35
2023-01-22T09:21:21.040Z,18.38
2023-01-22T09:22:24.273Z,18.50
2023-01-22T09:23:27.766Z,16.02
2023-01-22T09:24:31.027Z,15.30
2023-01-22T09:25:34.535Z,12.70
2023-01-22T09:26:37.842Z,15.73
2023-01-22T09:27:41.544Z,16.67
2023-01-22T09:28:44.868Z,16.27
2023-01-22T09:29:48.934Z,16.67
2023-01-22T09:30:52.154Z,16.85
2023-01-22T09:31:56.448Z,14.00
2023-01-22T09:32:59.913Z,17.80
2023-01-22T09:34:03.482Z,17.25
2023-01-22T09:35:08.670Z,14.48
2023-01-22T09:36:15.666Z,15.85
2023-01-22T09:37:19.396Z,19.33
2023-01-22T09:38:22.907Z,16.27
2023-01-22T09:39:26.317Z,18.08
2023-01-22T09:41:02.408Z,16.25
2023-01-22T09:42:07.167Z,17.35
2023-01-22T09:44:16.309Z,16.58
2023-01-22T09:45:25.686Z,16.42
2023-01-22T09:46:58.763Z,19.73
2023-01-22T09:48:09.833Z,19.50
2023-01-22T09:50:26.090Z,14.07
2023-01-22T09:51:29.932Z,17.90
2023-01-22T09:52:38.136Z,16.70
2023-01-22T09:53:45.654Z,16.38
2023-01-22T09:54:49.234Z,18.10
2023-01-22T09:55:55.833Z,17.60
2023-01-22T09:57:03.247Z,16.65
2023-01-22T09:58:15.778Z,19.75
2023-01-22T09:59:26.460Z,17.50
2023-01-22T10:00:56.436Z,18.45
2023-01-22T10:02:18.416Z,18.42
2023-01-22T10:03:42.687Z,14.88
2023-01-22T10:04:48.117Z,14.57
2023-01-22T10:06:12.801Z,17.67
2023-01-22T10:07:41.799Z,17.40
2023-01-22T10:09:14.333Z,14.55
2023-01-22T10:10:25.516Z,18.55
2023-01-22T10:11:28.803Z,13.88
2023-01-22T10:12:32.781Z,18.25
2023-01-22T10:13:38.858Z,15.60
2023-01-22T10:14:43.875Z,18.25
2023-01-22T10:15:49.866Z,18.17
2023-01-22T10:16:53.338Z,20.08
2023-01-22T10:17:58.290Z,17.75
2023-01-22T10:19:21.083Z,15.00
2023-01-22T10:20:24.969Z,15.57
2023-01-22T10:21:43.096Z,20.95
2023-01-22T10:22:48.895Z,14.63
2023-01-22T10:23:56.185Z,18.20
2023-01-22T10:24:59.399Z,16.77
2023-01-22T10:26:19.483Z,14.88
2023-01-22T10:27:39.568Z,17.88
2023-01-22T10:29:08.840Z,16.20
2023-01-22T10:30:24.871Z,15.07
2023-01-22T10:31:31.880Z,19.08
2023-01-22T10:32:35.174Z,17.40
2023-01-22T10:33:44.593Z,13.60
2023-01-22T10:35:16.879Z,16.85
2023-01-22T10:36:19.971Z,18.05
2023-01-22T10:37:23.093Z,17.95
2023-01-22T10:38:31.428Z,16.55
2023-01-22T10:39:43.544Z,18.23
2023-01-22T10:40:47.053Z,18.27
2023-01-22T10:41:51.105Z,18.20
2023-01-22T10:43:11.877Z,20.58
2023-01-22T10:44:25.248Z,21.45
2023-01-22T10:45:28.532Z,21.05
2023-01-22T10:46:31.779Z,20.73
2023-01-22T10:47:35.020Z,19.63
2023-01-22T10:48:38.264Z,15.98
2023-01-22T10:49:41.534Z,22.05
2023-01-22T10:50:45.993Z,19.48
2023-01-22T10:51:59.277Z,17.35
2023-01-22T10:53:04.811Z,20.63
2023-01-22T10:54:23.743Z,21.08
2023-01-22T10:55:37.773Z,16.92
2023-01-22T10:56:41.259Z,14.90
2023-01-22T10:57:59.294Z,18.08
2023-01-22T10:59:17.178Z,14.60
2023-01-22T11:00:27.781Z,21.17
2023-01-22T11:01:37.866Z,16.45
2023-01-22T11:02:48.036Z,14.27
2023-01-22T11:03:51.255Z,17.52
2023-01-22T11:04:54.809Z,16.15
2023-01-22T11:06:22.370Z,18.70
2023-01-22T11:07:33.329Z,17.42
2023-01-22T11:09:24.372Z,22.40
2023-01-22T11:10:58.996Z,20.90
2023-01-22T11:12:15.967Z,21.83
2023-01-22T11:13:31.839Z,20.92
2023-01-22T11:14:37.416Z,18.85
2023-01-22T11:16:23.472Z,20.45
2023-01-22T11:17:40.724Z,16.45
2023-01-22T11:19:13.515Z,20.23
2023-01-22T11:20:31.038Z,16.15
2023-01-22T11:21:40.818Z,20.67
2023-01-22T11:22:59.348Z,18.55
2023-01-22T11:24:28.280Z,19.52
2023-01-22T11:26:03.729Z,17.60
2023-01-22T11:27:19.734Z,19.80
2023-01-22T11:28:56.321Z,18.20
2023-01-22T11:30:52.511Z,18.95
2023-01-22T11:32:13.233Z,19.30
2023-01-22T11:34:04.478Z,19.13
2023-01-22T11:35:44.666Z,19.52
2023-01-22T11:37:15.888Z,32.55
2023-01-22T11:38:54.277Z,24.40
2023-01-22T11:40:32.003Z,24.02
2023-01-22T11:41:56.059Z,24.52
2023-01-22T11:43:23.437Z,23.92
2023-01-22T11:45:29.389Z,19.55
2023-01-22T11:46:37.752Z,20.70
2023-01-22T11:48:08.521Z,22.55
2023-01-22T11:49:40.709Z,21.05
2023-01-22T11:51:15.894Z,24.38
2023-01-22T11:52:49.073Z,22.30
2023-01-22T11:54:12.393Z,18.08
2023-01-22T11:56:10.448Z,19.92
2023-01-22T11:57:42.072Z,18.98
2023-01-22T11:59:55.703Z,23.80
2023-01-22T12:01:26.535Z,22.23
2023-01-22T12:03:00.945Z,17.52
2023-01-22T12:04:37.470Z,23.27
2023-01-22T12:06:38.543Z,20.90
2023-01-22T12:07:50.677Z,25.90
2023-01-22T12:09:21.687Z,20.20
2023-01-22T12:12:01.346Z,26.40
2023-01-22T12:13:58.155Z,20.52
2023-01-22T12:15:31.270Z,21.27
2023-01-22T12:17:11.617Z,19.80
2023-01-22T12:18:48.478Z,22.27
2023-01-22T12:20:14.247Z,25.63
2023-01-22T12:21:35.791Z,24.08
2023-01-22T12:22:52.488Z,22.83
2023-01-22T12:24:17.012Z,22.88
2023-01-22T12:25:48.700Z,27.15
2023-01-22T12:27:12.485Z,23.45
2023-01-22T12:28:33.852Z,31.83
2023-01-22T12:29:45.188Z,25.35
2023-01-22T12:30:58.046Z,27.30
2023-01-22T12:32:12.135Z,23.92
2023-01-22T12:33:24.843Z,28.95
2023-01-22T12:34:56.667Z,24.13
2023-01-22T12:36:04.028Z,23.92
2023-01-22T12:37:13.643Z,25.23
2023-01-22T12:38:38.586Z,22.58
2023-01-22T12:39:58.594Z,26.98
2023-01-22T12:41:18.395Z,24.88
2023-01-22T12:42:41.163Z,31.33
2023-01-22T12:43:53.373Z,28.67
2023-01-22T12:45:40.898Z,25.90
2023-01-22T12:47:01.763Z,23.02
2023-01-22T12:49:58.333Z,23.90
2023-01-22T12:51:01.627Z,23.88
2023-01-22T12:52:05.109Z,20.70
2023-01-22T12:53:39.256Z,24.25
2023-01-22T12:54:42.365Z,22.17
2023-01-22T12:55:45.758Z,26.17
2023-01-22T12:57:10.057Z,29.65
2023-01-22T12:58:27.272Z,26.33
2023-01-22T12:59:33.210Z,23.23
2023-01-22T13:00:39.269Z,21.88
2023-01-22T13:01:43.713Z,22.83
2023-01-22T13:02:46.914Z,25.85
2023-01-22T13:04:13.128Z,22.58
2023-01-22T13:05:27.016Z,26.75
2023-01-22T13:06:40.393Z,27.48
2023-01-22T13:07:43.565Z,22.65
2023-01-22T13:08:47.536Z,28.42
2023-01-22T13:10:22.233Z,26.05
2023-01-22T13:11:32.776Z,27.05
2023-01-22T13:12:49.628Z,21.05
2023-01-22T13:14:09.765Z,26.02
2023-01-22T13:15:28.565Z,22.85
2023-01-22T13:16:37.920Z,19.75
2023-01-22T13:17:41.552Z,23.30
2023-01-22T13:18:53.164Z,27.42
2023-01-22T13:19:57.971Z,26.20
2023-01-22T13:21:10.728Z,23.77
2023-01-22T13:22:24.023Z,25.42
2023-01-22T13:23:28.050Z,22.70
2023-01-22T13:24:31.227Z,24.38
2023-01-22T13:25:34.865Z,21.70
2023-01-22T13:26:39.277Z,24.30
2023-01-22T13:27:48.384Z,23.90
2023-01-22T13:29:21.212Z,22.33
2023-01-22T13:30:30.860Z,20.02
2023-01-22T13:31:34.809Z,19.52
2023-01-22T13:32:38.135Z,22.95
2023-01-22T13:33:52.042Z,24.27
2023-01-22T13:35:06.794Z,25.92
2023-01-22T13:36:11.427Z,22.10
2023-01-22T13:37:26.277Z,21.25
2023-01-22T13:38:32.813Z,24.65
2023-01-22T13:39:36.140Z,22.85
2023-01-22T13:40:50.686Z,23.13
2023-01-22T13:41:57.837Z,20.05
2023-01-22T13:43:01.141Z,21.23
2023-01-22T13:44:07.469Z,24.70
2023-01-22T13:45:20.919Z,26.30
2023-01-22T13:46:26.209Z,22.42
2023-01-22T13:47:34.547Z,23.98
2023-01-22T13:48:38.550Z,26.33
2023-01-22T13:49:44.475Z,21.52
2023-01-22T13:51:06.232Z,25.95
2023-01-22T13:52:16.653Z,20.83
2023-01-22T13:53:39.631Z,27.10
2023-01-22T13:55:06.651Z,21.45
2023-01-22T13:56:36.243Z,27.90
2023-01-22T13:57:53.124Z,16.83
2023-01-22T13:59:36.570Z,18.35
2023-01-22T14:00:39.718Z,23.92
2023-01-22T14:01:43.057Z,20.20
2023-01-22T14:02:46.261Z,18.08
2023-01-22T14:04:04.341Z,22.20
2023-01-22T14:05:27.937Z,21.58
2023-01-22T14:06:42.553Z,31.15
2023-01-22T14:07:45.753Z,18.25
2023-01-22T14:08:55.746Z,19.60
2023-01-22T14:10:15.195Z,22.70
2023-01-22T14:11:19.697Z,21.23
2023-01-22T14:12:27.026Z,19.95
2023-01-22T14:13:41.253Z,20.70
2023-01-22T14:14:45.300Z,21.83
2023-01-22T14:15:59.494Z,25.38
2023-01-22T14:17:02.700Z,18.75
2023-01-22T14:18:17.983Z,24.33
2023-01-22T14:19:21.314Z,20.10
2023-01-22T14:20:24.439Z,26.60
2023-01-22T14:21:27.540Z,23.10
2023-01-22T14:22:30.588Z,20.73
2023-01-22T14:23:34.550Z,22.08
2023-01-22T14:24:37.710Z,27.25
2023-01-22T14:25:53.235Z,21.35
2023-01-22T14:26:57.632Z,27.65
2023-01-22T14:28:00.866Z,22.45
2023-01-22T14:29:04.118Z,23.67
2023-01-22T14:30:10.057Z,22.92
2023-01-22T14:31:13.386Z,24.05
2023-01-22T14:32:16.643Z,21.40
2023-01-22T14:33:24.382Z,22.88
2023-01-22T14:34:27.750Z,18.70
2023-01-22T14:35:31.466Z,27.08
2023-01-22T14:36:34.615Z,23.30
2023-01-22T14:37:40.498Z,18.73
2023-01-22T14:38:43.604Z,22.70
2023-01-22T14:39:46.764Z,23.27
2023-01-22T14:40:50.284Z,26.35
2023-01-22T14:41:53.473Z,24.90
2023-01-22T14:42:59.184Z,18.23
2023-01-22T14:44:04.097Z,16.95
2023-01-22T14:45:09.202Z,24.45
2023-01-22T14:46:12.299Z,21.00
2023-01-22T14:47:15.537Z,29.13
2023-01-22T14:48:21.112Z,17.67
2023-01-22T14:49:24.253Z,18.77
2023-01-22T14:50:27.696Z,20.85
2023-01-22T14:51:31.106Z,17.20
2023-01-22T14:52:36.356Z,19.63
2023-01-22T14:53:40.174Z,20.05